sensor_id;sensor_type;location;lat;lon;timestamp;pressure;altitude;pressure_sealevel;temperature;humidity
68822;BME280;55834;50.870;4.606;2023-03-21T00:01:00;101014.06;;;10.62;52.46
68822;BME280;55834;50.870;4.606;2023-03-21T00:03:29;101002.69;;;10.60;52.74
68822;BME280;55834;50.870;4.606;2023-03-21T00:05:54;101002.63;;;10.63;52.68
68822;BME280;55834;50.870;4.606;2023-03-21T00:08:22;100998.16;;;10.65;52.68
68822;BME280;55834;50.870;4.606;2023-03-21T00:10:58;100986.81;;;10.61;52.50
68822;BME280;55834;50.870;4.606;2023-03-21T00:13:25;100989.78;;;10.48;52.75
68822;BME280;55834;50.870;4.606;2023-03-21T00:15:52;100993.44;;;10.40;53.41
68822;BME280;55834;50.870;4.606;2023-03-21T00:18:22;100985.31;;;10.51;53.38
68822;BME280;55834;50.870;4.606;2023-03-21T00:21:02;100976.44;;;10.54;53.16
68822;BME280;55834;50.870;4.606;2023-03-21T00:23:28;100975.69;;;10.49;53.09
68822;BME280;55834;50.870;4.606;2023-03-21T00:25:54;100970.69;;;10.36;53.68
68822;BME280;55834;50.870;4.606;2023-03-21T00:28:20;100970.59;;;10.39;53.10
68822;BME280;55834;50.870;4.606;2023-03-21T00:30:46;100969.00;;;10.32;54.13
68822;BME280;55834;50.870;4.606;2023-03-21T00:33:12;100960.94;;;10.38;53.53
68822;BME280;55834;50.870;4.606;2023-03-21T00:35:38;100962.56;;;10.44;53.13
68822;BME280;55834;50.870;4.606;2023-03-21T00:38:06;100958.94;;;10.50;53.03
68822;BME280;55834;50.870;4.606;2023-03-21T00:40:31;100952.84;;;10.46;52.75
68822;BME280;55834;50.870;4.606;2023-03-21T00:42:57;100955.34;;;10.52;53.02
68822;BME280;55834;50.870;4.606;2023-03-21T00:45:22;100956.13;;;10.56;52.78
68822;BME280;55834;50.870;4.606;2023-03-21T00:47:48;100954.41;;;10.55;52.60
68822;BME280;55834;50.870;4.606;2023-03-21T00:50:13;100957.06;;;10.55;52.96
68822;BME280;55834;50.870;4.606;2023-03-21T00:52:38;100953.50;;;10.56;52.71
68822;BME280;55834;50.870;4.606;2023-03-21T00:55:04;100939.34;;;10.58;52.85
68822;BME280;55834;50.870;4.606;2023-03-21T00:57:30;100943.69;;;10.61;52.90
68822;BME280;55834;50.870;4.606;2023-03-21T00:59:56;100941.03;;;10.63;52.76
68822;BME280;55834;50.870;4.606;2023-03-21T01:02:23;100934.94;;;10.59;52.85
68822;BME280;55834;50.870;4.606;2023-03-21T01:04:52;100932.22;;;10.62;53.04
68822;BME280;55834;50.870;4.606;2023-03-21T01:07:17;100927.91;;;10.59;52.94
68822;BME280;55834;50.870;4.606;2023-03-21T01:09:43;100922.69;;;10.56;53.07
68822;BME280;55834;50.870;4.606;2023-03-21T01:12:08;100923.50;;;10.60;52.87
68822;BME280;55834;50.870;4.606;2023-03-21T01:14:34;100922.69;;;10.56;52.72
68822;BME280;55834;50.870;4.606;2023-03-21T01:17:00;100917.47;;;10.55;52.87
68822;BME280;55834;50.870;4.606;2023-03-21T01:19:26;100908.59;;;10.57;52.90
68822;BME280;55834;50.870;4.606;2023-03-21T01:21:52;100911.09;;;10.62;52.77
68822;BME280;55834;50.870;4.606;2023-03-21T01:24:18;100904.34;;;10.52;52.68
68822;BME280;55834;50.870;4.606;2023-03-21T01:26:43;100896.41;;;10.52;52.68
68822;BME280;55834;50.870;4.606;2023-03-21T01:29:08;100898.06;;;10.56;52.95
68822;BME280;55834;50.870;4.606;2023-03-21T01:31:34;100887.63;;;10.51;52.41
68822;BME280;55834;50.870;4.606;2023-03-21T01:33:59;100890.31;;;10.50;52.87
68822;BME280;55834;50.870;4.606;2023-03-21T01:36:25;100892.38;;;10.37;53.32
68822;BME280;55834;50.870;4.606;2023-03-21T01:38:52;100882.59;;;10.40;53.30
68822;BME280;55834;50.870;4.606;2023-03-21T01:41:32;100890.41;;;10.45;52.91
68822;BME280;55834;50.870;4.606;2023-03-21T01:43:59;100887.78;;;10.44;53.17
68822;BME280;55834;50.870;4.606;2023-03-21T01:49:05;100878.22;;;10.39;53.14
68822;BME280;55834;50.870;4.606;2023-03-21T01:51:34;100882.63;;;10.39;52.85
68822;BME280;55834;50.870;4.606;2023-03-21T01:54:01;100876.38;;;10.42;53.13
68822;BME280;55834;50.870;4.606;2023-03-21T01:56:34;100872.81;;;10.44;53.10
68822;BME280;55834;50.870;4.606;2023-03-21T01:59:04;100879.16;;;10.37;53.05
68822;BME280;55834;50.870;4.606;2023-03-21T02:01:31;100875.66;;;10.36;52.89
68822;BME280;55834;50.870;4.606;2023-03-21T02:04:00;100870.50;;;10.32;52.98
68822;BME280;55834;50.870;4.606;2023-03-21T02:06:44;100869.47;;;10.37;53.26
68822;BME280;55834;50.870;4.606;2023-03-21T02:09:13;100868.72;;;10.32;52.91
68822;BME280;55834;50.870;4.606;2023-03-21T02:11:40;100855.91;;;10.17;53.26
68822;BME280;55834;50.870;4.606;2023-03-21T02:14:13;100859.34;;;10.21;53.79
68822;BME280;55834;50.870;4.606;2023-03-21T02:27:31;100843.34;;;10.27;53.07
68822;BME280;55834;50.870;4.606;2023-03-21T02:33:18;100835.56;;;10.22;53.34
68822;BME280;55834;50.870;4.606;2023-03-21T02:38:25;100831.16;;;10.21;52.95
68822;BME280;55834;50.870;4.606;2023-03-21T02:43:58;100833.84;;;9.84;53.12
68822;BME280;55834;50.870;4.606;2023-03-21T02:46:40;100835.59;;;9.85;53.37
68822;BME280;55834;50.870;4.606;2023-03-21T02:49:11;100835.28;;;9.60;53.71
68822;BME280;55834;50.870;4.606;2023-03-21T02:51:42;100834.13;;;9.73;54.17
68822;BME280;55834;50.870;4.606;2023-03-21T02:54:14;100831.72;;;9.62;54.70
68822;BME280;55834;50.870;4.606;2023-03-21T02:56:41;100845.66;;;8.84;55.59
68822;BME280;55834;50.870;4.606;2023-03-21T02:59:07;100835.28;;;9.60;54.90
68822;BME280;55834;50.870;4.606;2023-03-21T03:01:34;100818.63;;;9.95;53.62
68822;BME280;55834;50.870;4.606;2023-03-21T03:04:00;100814.56;;;10.17;53.23
68822;BME280;55834;50.870;4.606;2023-03-21T03:06:29;100811.56;;;10.31;52.47
68822;BME280;55834;50.870;4.606;2023-03-21T03:09:01;100801.59;;;10.43;52.50
68822;BME280;55834;50.870;4.606;2023-03-21T03:11:34;100794.41;;;10.49;52.32
68822;BME280;55834;50.870;4.606;2023-03-21T03:16:43;100795.41;;;10.44;52.04
68822;BME280;55834;50.870;4.606;2023-03-21T03:19:24;100802.53;;;10.40;52.28
68822;BME280;55834;50.870;4.606;2023-03-21T03:21:59;100807.00;;;10.38;52.19
68822;BME280;55834;50.870;4.606;2023-03-21T03:25:12;100800.81;;;10.05;52.53
68822;BME280;55834;50.870;4.606;2023-03-21T03:27:26;100799.91;;;10.06;52.81
68822;BME280;55834;50.870;4.606;2023-03-21T03:29:56;100795.34;;;10.12;53.02
68822;BME280;55834;50.870;4.606;2023-03-21T03:32:30;100800.63;;;9.77;53.28
68822;BME280;55834;50.870;4.606;2023-03-21T03:34:59;100808.72;;;9.69;53.60
68822;BME280;55834;50.870;4.606;2023-03-21T03:37:31;100804.66;;;9.54;53.95
68822;BME280;55834;50.870;4.606;2023-03-21T03:42:35;100794.22;;;9.87;53.18
68822;BME280;55834;50.870;4.606;2023-03-21T03:45:02;100786.88;;;10.00;53.10
68822;BME280;55834;50.870;4.606;2023-03-21T03:50:27;100786.91;;;9.98;53.41
68822;BME280;55834;50.870;4.606;2023-03-21T03:53:00;100788.44;;;10.07;52.98
68822;BME280;55834;50.870;4.606;2023-03-21T03:55:27;100780.84;;;9.94;52.66
68822;BME280;55834;50.870;4.606;2023-03-21T03:57:59;100785.97;;;10.01;52.69
68822;BME280;55834;50.870;4.606;2023-03-21T04:00:25;100779.63;;;9.74;53.13
68822;BME280;55834;50.870;4.606;2023-03-21T04:02:52;100781.63;;;9.62;53.68
68822;BME280;55834;50.870;4.606;2023-03-21T04:05:18;100788.00;;;9.54;54.11
68822;BME280;55834;50.870;4.606;2023-03-21T04:07:45;100787.28;;;9.45;53.98
68822;BME280;55834;50.870;4.606;2023-03-21T04:10:11;100782.47;;;9.64;53.67
68822;BME280;55834;50.870;4.606;2023-03-21T04:12:36;100784.22;;;9.64;53.47
68822;BME280;55834;50.870;4.606;2023-03-21T04:15:01;100779.13;;;9.93;52.91
68822;BME280;55834;50.870;4.606;2023-03-21T04:17:27;100771.72;;;9.72;53.60
68822;BME280;55834;50.870;4.606;2023-03-21T04:19:52;100774.91;;;9.86;53.29
68822;BME280;55834;50.870;4.606;2023-03-21T04:22:17;100763.88;;;9.69;53.52
68822;BME280;55834;50.870;4.606;2023-03-21T04:24:43;100768.00;;;9.81;53.47
68822;BME280;55834;50.870;4.606;2023-03-21T04:27:09;100764.25;;;9.89;53.42
68822;BME280;55834;50.870;4.606;2023-03-21T04:29:34;100763.72;;;9.77;53.95
68822;BME280;55834;50.870;4.606;2023-03-21T04:31:59;100762.94;;;9.73;53.62
68822;BME280;55834;50.870;4.606;2023-03-21T04:34:25;100765.97;;;9.56;54.32
68822;BME280;55834;50.870;4.606;2023-03-21T04:36:53;100755.53;;;9.52;54.43
68822;BME280;55834;50.870;4.606;2023-03-21T04:39:19;100770.00;;;9.71;54.13
68822;BME280;55834;50.870;4.606;2023-03-21T04:41:45;100757.84;;;9.64;54.04
68822;BME280;55834;50.870;4.606;2023-03-21T04:44:12;100763.72;;;9.39;54.80
68822;BME280;55834;50.870;4.606;2023-03-21T04:46:38;100763.63;;;9.44;54.42
68822;BME280;55834;50.870;4.606;2023-03-21T04:49:04;100757.13;;;9.59;54.11
68822;BME280;55834;50.870;4.606;2023-03-21T04:51:31;100757.41;;;9.46;54.78
68822;BME280;55834;50.870;4.606;2023-03-21T04:53:56;100747.66;;;9.50;54.60
68822;BME280;55834;50.870;4.606;2023-03-21T04:56:25;100755.59;;;9.48;54.88
68822;BME280;55834;50.870;4.606;2023-03-21T04:59:00;100752.56;;;9.65;55.20
68822;BME280;55834;50.870;4.606;2023-03-21T05:01:26;100751.31;;;9.80;54.26
68822;BME280;55834;50.870;4.606;2023-03-21T05:03:58;100745.28;;;9.38;55.37
68822;BME280;55834;50.870;4.606;2023-03-21T05:06:24;100743.75;;;9.66;55.14
68822;BME280;55834;50.870;4.606;2023-03-21T05:08:50;100748.34;;;9.58;54.42
68822;BME280;55834;50.870;4.606;2023-03-21T05:11:16;100750.91;;;9.61;54.39
68822;BME280;55834;50.870;4.606;2023-03-21T05:13:41;100754.66;;;9.53;54.65
68822;BME280;55834;50.870;4.606;2023-03-21T05:16:07;100748.84;;;9.74;54.79
68822;BME280;55834;50.870;4.606;2023-03-21T05:18:32;100746.31;;;9.69;54.50
68822;BME280;55834;50.870;4.606;2023-03-21T05:20:59;100746.47;;;9.98;54.17
68822;BME280;55834;50.870;4.606;2023-03-21T05:23:24;100752.31;;;9.76;54.86
68822;BME280;55834;50.870;4.606;2023-03-21T05:25:55;100746.28;;;9.71;53.97
68822;BME280;55834;50.870;4.606;2023-03-21T05:28:21;100744.09;;;9.88;53.84
68822;BME280;55834;50.870;4.606;2023-03-21T05:30:46;100743.81;;;9.99;53.43
68822;BME280;55834;50.870;4.606;2023-03-21T05:33:12;100748.56;;;9.85;55.02
68822;BME280;55834;50.870;4.606;2023-03-21T05:35:38;100741.56;;;9.84;55.02
68822;BME280;55834;50.870;4.606;2023-03-21T05:38:03;100739.91;;;9.80;54.99
68822;BME280;55834;50.870;4.606;2023-03-21T05:40:28;100744.44;;;10.09;54.95
68822;BME280;55834;50.870;4.606;2023-03-21T05:42:54;100740.50;;;10.25;54.32
68822;BME280;55834;50.870;4.606;2023-03-21T05:45:19;100737.47;;;10.06;54.41
68822;BME280;55834;50.870;4.606;2023-03-21T05:47:45;100739.13;;;10.10;55.04
68822;BME280;55834;50.870;4.606;2023-03-21T05:50:11;100739.31;;;10.03;54.73
68822;BME280;55834;50.870;4.606;2023-03-21T05:52:37;100741.72;;;10.12;54.22
68822;BME280;55834;50.870;4.606;2023-03-21T05:55:03;100747.50;;;9.92;54.65
68822;BME280;55834;50.870;4.606;2023-03-21T05:57:29;100737.38;;;10.09;54.33
68822;BME280;55834;50.870;4.606;2023-03-21T05:59:59;100747.03;;;10.10;54.13
68822;BME280;55834;50.870;4.606;2023-03-21T06:02:24;100736.69;;;10.03;54.29
68822;BME280;55834;50.870;4.606;2023-03-21T06:04:49;100747.59;;;9.89;55.14
68822;BME280;55834;50.870;4.606;2023-03-21T06:07:15;100754.81;;;9.81;54.82
68822;BME280;55834;50.870;4.606;2023-03-21T06:09:40;100749.22;;;9.59;55.39
68822;BME280;55834;50.870;4.606;2023-03-21T06:12:06;100751.00;;;9.92;55.11
68822;BME280;55834;50.870;4.606;2023-03-21T06:14:31;100755.81;;;9.75;55.22
68822;BME280;55834;50.870;4.606;2023-03-21T06:16:56;100747.81;;;9.80;54.97
68822;BME280;55834;50.870;4.606;2023-03-21T06:19:22;100754.91;;;9.78;55.19
68822;BME280;55834;50.870;4.606;2023-03-21T06:21:48;100760.75;;;9.90;55.32
68822;BME280;55834;50.870;4.606;2023-03-21T06:24:13;100757.34;;;9.85;55.53
68822;BME280;55834;50.870;4.606;2023-03-21T06:26:39;100761.75;;;9.85;54.89
68822;BME280;55834;50.870;4.606;2023-03-21T06:29:06;100756.75;;;9.74;55.98
68822;BME280;55834;50.870;4.606;2023-03-21T06:31:31;100765.34;;;9.81;55.45
68822;BME280;55834;50.870;4.606;2023-03-21T06:33:57;100758.28;;;9.83;55.62
68822;BME280;55834;50.870;4.606;2023-03-21T06:36:22;100761.19;;;10.08;55.15
68822;BME280;55834;50.870;4.606;2023-03-21T06:38:47;100749.28;;;10.26;55.69
68822;BME280;55834;50.870;4.606;2023-03-21T06:41:13;100746.47;;;9.99;55.59
68822;BME280;55834;50.870;4.606;2023-03-21T06:43:39;100758.63;;;10.05;55.90
68822;BME280;55834;50.870;4.606;2023-03-21T06:46:05;100755.69;;;9.81;56.37
68822;BME280;55834;50.870;4.606;2023-03-21T06:48:30;100755.16;;;10.03;57.27
68822;BME280;55834;50.870;4.606;2023-03-21T06:50:56;100746.25;;;10.07;56.69
68822;BME280;55834;50.870;4.606;2023-03-21T06:53:24;100752.44;;;10.06;56.78
68822;BME280;55834;50.870;4.606;2023-03-21T06:55:52;100747.75;;;10.17;56.75
68822;BME280;55834;50.870;4.606;2023-03-21T06:58:18;100743.81;;;10.32;56.59
68822;BME280;55834;50.870;4.606;2023-03-21T07:00:43;100741.97;;;10.35;56.03
68822;BME280;55834;50.870;4.606;2023-03-21T07:03:10;100740.16;;;10.37;56.30
68822;BME280;55834;50.870;4.606;2023-03-21T07:05:36;100750.78;;;10.34;56.35
68822;BME280;55834;50.870;4.606;2023-03-21T07:08:02;100743.75;;;10.33;56.40
68822;BME280;55834;50.870;4.606;2023-03-21T07:10:27;100741.66;;;10.46;56.61
68822;BME280;55834;50.870;4.606;2023-03-21T07:12:53;100741.25;;;10.29;56.87
68822;BME280;55834;50.870;4.606;2023-03-21T07:15:18;100745.13;;;10.15;57.19
68822;BME280;55834;50.870;4.606;2023-03-21T07:17:43;100748.75;;;9.77;56.84
68822;BME280;55834;50.870;4.606;2023-03-21T07:20:09;100752.75;;;9.58;57.24
68822;BME280;55834;50.870;4.606;2023-03-21T07:22:36;100744.91;;;9.55;56.98
68822;BME280;55834;50.870;4.606;2023-03-21T07:25:02;100744.91;;;9.55;56.82
68822;BME280;55834;50.870;4.606;2023-03-21T07:27:29;100739.63;;;9.56;56.40
68822;BME280;55834;50.870;4.606;2023-03-21T07:29:54;100738.75;;;9.56;56.49
68822;BME280;55834;50.870;4.606;2023-03-21T07:32:20;100742.38;;;9.86;56.35
68822;BME280;55834;50.870;4.606;2023-03-21T07:34:45;100733.72;;;10.15;55.93
68822;BME280;55834;50.870;4.606;2023-03-21T07:37:10;100730.50;;;10.36;54.94
68822;BME280;55834;50.870;4.606;2023-03-21T07:39:35;100734.31;;;10.25;54.24
68822;BME280;55834;50.870;4.606;2023-03-21T07:42:01;100724.75;;;9.88;54.83
68822;BME280;55834;50.870;4.606;2023-03-21T07:44:27;100720.91;;;9.67;55.12
68822;BME280;55834;50.870;4.606;2023-03-21T07:46:53;100720.00;;;9.68;54.95
68822;BME280;55834;50.870;4.606;2023-03-21T07:49:19;100726.38;;;9.58;55.21
68822;BME280;55834;50.870;4.606;2023-03-21T07:51:44;100723.31;;;9.76;55.97
68822;BME280;55834;50.870;4.606;2023-03-21T07:54:10;100715.66;;;8.89;57.63
68822;BME280;55834;50.870;4.606;2023-03-21T07:56:35;100713.25;;;9.56;56.57
68822;BME280;55834;50.870;4.606;2023-03-21T07:59:00;100711.84;;;9.77;56.30
68822;BME280;55834;50.870;4.606;2023-03-21T08:01:26;100712.53;;;9.85;55.31
68822;BME280;55834;50.870;4.606;2023-03-21T08:03:51;100709.03;;;9.83;54.93
68822;BME280;55834;50.870;4.606;2023-03-21T08:06:19;100714.75;;;10.01;55.62
68822;BME280;55834;50.870;4.606;2023-03-21T08:08:45;100708.88;;;9.89;55.70
68822;BME280;55834;50.870;4.606;2023-03-21T08:11:11;100708.34;;;9.77;55.68
68822;BME280;55834;50.870;4.606;2023-03-21T08:13:36;100713.41;;;9.11;57.43
68822;BME280;55834;50.870;4.606;2023-03-21T08:16:02;100713.72;;;9.36;57.33
68822;BME280;55834;50.870;4.606;2023-03-21T08:18:27;100706.16;;;9.21;56.91
68822;BME280;55834;50.870;4.606;2023-03-21T08:20:54;100705.13;;;9.65;56.21
68822;BME280;55834;50.870;4.606;2023-03-21T08:23:20;100693.47;;;10.07;55.75
68822;BME280;55834;50.870;4.606;2023-03-21T08:25:50;100685.06;;;9.92;55.04
68822;BME280;55834;50.870;4.606;2023-03-21T08:28:16;100690.91;;;10.05;55.29
68822;BME280;55834;50.870;4.606;2023-03-21T08:30:41;100690.22;;;9.64;55.50
68822;BME280;55834;50.870;4.606;2023-03-21T08:33:07;100691.84;;;9.31;56.76
68822;BME280;55834;50.870;4.606;2023-03-21T08:35:33;100691.66;;;9.76;56.56
68822;BME280;55834;50.870;4.606;2023-03-21T08:37:58;100686.56;;;9.70;55.82
68822;BME280;55834;50.870;4.606;2023-03-21T08:40:26;100683.59;;;9.46;56.35
68822;BME280;55834;50.870;4.606;2023-03-21T08:42:51;100685.53;;;9.76;56.13
68822;BME280;55834;50.870;4.606;2023-03-21T08:45:17;100690.22;;;9.64;55.99
68822;BME280;55834;50.870;4.606;2023-03-21T08:47:42;100688.22;;;9.72;56.24
68822;BME280;55834;50.870;4.606;2023-03-21T08:50:11;100678.25;;;9.84;55.67
68822;BME280;55834;50.870;4.606;2023-03-21T08:52:37;100676.47;;;9.86;55.67
68822;BME280;55834;50.870;4.606;2023-03-21T08:55:03;100693.13;;;9.52;56.40
68822;BME280;55834;50.870;4.606;2023-03-21T08:57:29;100674.50;;;9.94;55.46
68822;BME280;55834;50.870;4.606;2023-03-21T08:59:54;100670.66;;;10.06;54.97
68822;BME280;55834;50.870;4.606;2023-03-21T09:02:20;100670.53;;;9.78;56.26
68822;BME280;55834;50.870;4.606;2023-03-21T09:04:45;100657.84;;;9.92;55.18
68822;BME280;55834;50.870;4.606;2023-03-21T09:07:11;100662.09;;;9.98;55.71
68822;BME280;55834;50.870;4.606;2023-03-21T09:09:39;100661.78;;;9.41;56.99
68822;BME280;55834;50.870;4.606;2023-03-21T09:12:06;100661.25;;;9.63;56.69
68822;BME280;55834;50.870;4.606;2023-03-21T09:14:31;100653.84;;;9.77;56.10
68822;BME280;55834;50.870;4.606;2023-03-21T09:16:58;100647.41;;;10.20;55.77
68822;BME280;55834;50.870;4.606;2023-03-21T09:19:24;100648.38;;;10.49;55.26
68822;BME280;55834;50.870;4.606;2023-03-21T09:21:50;100646.09;;;10.66;53.72
68822;BME280;55834;50.870;4.606;2023-03-21T09:24:16;100645.66;;;10.50;54.15
68822;BME280;55834;50.870;4.606;2023-03-21T09:26:42;100650.22;;;10.14;54.48
68822;BME280;55834;50.870;4.606;2023-03-21T09:29:08;100649.50;;;10.38;53.54
68822;BME280;55834;50.870;4.606;2023-03-21T09:31:33;100652.31;;;10.64;53.09
68822;BME280;55834;50.870;4.606;2023-03-21T09:33:59;100654.75;;;10.71;53.24
68822;BME280;55834;50.870;4.606;2023-03-21T09:36:24;100653.72;;;10.75;52.68
68822;BME280;55834;50.870;4.606;2023-03-21T09:38:51;100656.28;;;9.51;54.76
68822;BME280;55834;50.870;4.606;2023-03-21T09:47:14;100660.22;;;9.68;55.56
68822;BME280;55834;50.870;4.606;2023-03-21T09:49:48;100665.13;;;9.82;54.27
68822;BME280;55834;50.870;4.606;2023-03-21T09:52:30;100672.41;;;9.72;54.48
68822;BME280;55834;50.870;4.606;2023-03-21T09:54:58;100673.19;;;9.03;55.28
68822;BME280;55834;50.870;4.606;2023-03-21T09:57:31;100666.25;;;9.00;56.05
68822;BME280;55834;50.870;4.606;2023-03-21T09:59:59;100669.06;;;9.66;55.09
68822;BME280;55834;50.870;4.606;2023-03-21T10:02:39;100668.31;;;9.95;53.64
68822;BME280;55834;50.870;4.606;2023-03-21T10:05:17;100663.53;;;10.40;53.48
68822;BME280;55834;50.870;4.606;2023-03-21T10:07:49;100663.19;;;9.89;53.87
68822;BME280;55834;50.870;4.606;2023-03-21T10:10:20;100652.84;;;9.81;53.71
68822;BME280;55834;50.870;4.606;2023-03-21T10:12:49;100649.13;;;10.52;52.35
68822;BME280;55834;50.870;4.606;2023-03-21T10:15:19;100656.88;;;10.58;51.28
68822;BME280;55834;50.870;4.606;2023-03-21T10:17:59;100651.28;;;10.69;51.10
68822;BME280;55834;50.870;4.606;2023-03-21T10:20:33;100643.06;;;10.78;51.00
68822;BME280;55834;50.870;4.606;2023-03-21T10:23:03;100642.13;;;10.51;51.51
68822;BME280;55834;50.870;4.606;2023-03-21T10:25:32;100649.03;;;10.55;51.96
68822;BME280;55834;50.870;4.606;2023-03-21T10:28:00;100635.47;;;10.68;52.05
68822;BME280;55834;50.870;4.606;2023-03-21T10:30:36;100640.47;;;11.32;50.85
68822;BME280;55834;50.870;4.606;2023-03-21T10:33:04;100637.50;;;10.59;51.03
68822;BME280;55834;50.870;4.606;2023-03-21T10:35:34;100627.69;;;10.63;51.83
68822;BME280;55834;50.870;4.606;2023-03-21T10:38:01;100620.97;;;10.81;51.85
68822;BME280;55834;50.870;4.606;2023-03-21T10:40:28;100621.38;;;10.37;51.97
68822;BME280;55834;50.870;4.606;2023-03-21T10:43:28;100612.66;;;10.35;51.54
68822;BME280;55834;50.870;4.606;2023-03-21T10:45:55;100626.72;;;10.05;52.78
68822;BME280;55834;50.870;4.606;2023-03-21T10:48:21;100633.19;;;10.24;52.85
68822;BME280;55834;50.870;4.606;2023-03-21T10:50:50;100638.97;;;9.75;53.12
68822;BME280;55834;50.870;4.606;2023-03-21T10:53:21;100634.16;;;9.90;53.11
68822;BME280;55834;50.870;4.606;2023-03-21T10:55:53;100643.34;;;10.08;52.77
68822;BME280;55834;50.870;4.606;2023-03-21T10:58:25;100645.66;;;10.50;51.75
68822;BME280;55834;50.870;4.606;2023-03-21T11:01:00;100643.72;;;10.57;52.03
68822;BME280;55834;50.870;4.606;2023-03-21T11:03:30;100651.16;;;11.28;50.66
68822;BME280;55834;50.870;4.606;2023-03-21T11:06:06;100646.91;;;11.24;51.37
68822;BME280;55834;50.870;4.606;2023-03-21T11:08:42;100645.50;;;11.67;50.61
68822;BME280;55834;50.870;4.606;2023-03-21T11:11:09;100652.84;;;11.58;51.03
68822;BME280;55834;50.870;4.606;2023-03-21T11:13:41;100648.31;;;11.88;49.22
68822;BME280;55834;50.870;4.606;2023-03-21T11:16:18;100633.78;;;11.74;49.14
68822;BME280;55834;50.870;4.606;2023-03-21T11:18:51;100651.78;;;11.63;48.92
68822;BME280;55834;50.870;4.606;2023-03-21T11:21:17;100639.03;;;11.49;49.79
68822;BME280;55834;50.870;4.606;2023-03-21T11:23:45;100640.03;;;11.97;48.24
68822;BME280;55834;50.870;4.606;2023-03-21T11:26:18;100645.56;;;11.91;49.33
68822;BME280;55834;50.870;4.606;2023-03-21T11:28:48;100647.06;;;11.73;49.97
68822;BME280;55834;50.870;4.606;2023-03-21T11:31:15;100637.84;;;11.85;48.94
68822;BME280;55834;50.870;4.606;2023-03-21T11:33:45;100631.47;;;11.90;48.74
68822;BME280;55834;50.870;4.606;2023-03-21T11:38:41;100656.19;;;11.64;49.06
68822;BME280;55834;50.870;4.606;2023-03-21T11:41:06;100635.72;;;12.19;47.92
68822;BME280;55834;50.870;4.606;2023-03-21T11:43:37;100637.25;;;12.02;47.26
68822;BME280;55834;50.870;4.606;2023-03-21T11:48:29;100629.31;;;12.25;48.08
68822;BME280;55834;50.870;4.606;2023-03-21T11:51:03;100630.91;;;12.06;48.71
68822;BME280;55834;50.870;4.606;2023-03-21T11:53:43;100620.09;;;12.35;47.72
68822;BME280;55834;50.870;4.606;2023-03-21T12:04:46;100604.78;;;12.43;48.48
68822;BME280;55834;50.870;4.606;2023-03-21T12:07:50;100597.72;;;12.44;48.39
68822;BME280;55834;50.870;4.606;2023-03-21T12:13:40;100589.22;;;12.81;47.40
68822;BME280;55834;50.870;4.606;2023-03-21T12:16:31;100583.03;;;12.35;48.16
68822;BME280;55834;50.870;4.606;2023-03-21T12:22:33;100575.31;;;12.53;47.03
68822;BME280;55834;50.870;4.606;2023-03-21T12:24:55;100581.56;;;12.28;47.80
68822;BME280;55834;50.870;4.606;2023-03-21T12:35:55;100576.41;;;12.93;47.33
68822;BME280;55834;50.870;4.606;2023-03-21T12:38:42;100575.25;;;13.00;46.73
68822;BME280;55834;50.870;4.606;2023-03-21T12:43:59;100579.00;;;12.94;46.98
68822;BME280;55834;50.870;4.606;2023-03-21T12:46:38;100566.91;;;12.87;47.26
68822;BME280;55834;50.870;4.606;2023-03-21T12:51:43;100555.06;;;13.38;46.93
68822;BME280;55834;50.870;4.606;2023-03-21T12:54:49;100553.28;;;13.39;47.10
68822;BME280;55834;50.870;4.606;2023-03-21T12:57:20;100548.78;;;13.41;46.52
68822;BME280;55834;50.870;4.606;2023-03-21T12:59:59;100548.88;;;12.75;47.21
68822;BME280;55834;50.870;4.606;2023-03-21T13:02:37;100561.75;;;13.26;47.07
68822;BME280;55834;50.870;4.606;2023-03-21T13:07:38;100555.88;;;12.98;46.13
68822;BME280;55834;50.870;4.606;2023-03-21T13:10:17;100551.69;;;13.35;45.73
68822;BME280;55834;50.870;4.606;2023-03-21T13:21:48;100531.25;;;13.77;45.10
68822;BME280;55834;50.870;4.606;2023-03-21T13:24:17;100526.34;;;13.48;45.28
68822;BME280;55834;50.870;4.606;2023-03-21T13:27:04;100525.91;;;13.18;45.47
68822;BME280;55834;50.870;4.606;2023-03-21T13:29:50;100526.31;;;13.29;46.10
68822;BME280;55834;50.870;4.606;2023-03-21T13:37:47;100530.41;;;13.36;46.76
68822;BME280;55834;50.870;4.606;2023-03-21T13:40:26;100533.59;;;13.44;46.29
68822;BME280;55834;50.870;4.606;2023-03-21T13:42:57;100520.63;;;13.98;45.50
68822;BME280;55834;50.870;4.606;2023-03-21T13:45:51;100523.38;;;13.76;44.67
68822;BME280;55834;50.870;4.606;2023-03-21T13:48:29;100520.66;;;13.96;44.59
68822;BME280;55834;50.870;4.606;2023-03-21T13:51:01;100519.50;;;13.83;45.91
68822;BME280;55834;50.870;4.606;2023-03-21T13:53:40;100515.09;;;13.63;46.16
68822;BME280;55834;50.870;4.606;2023-03-21T13:58:51;100514.69;;;13.72;46.62
68822;BME280;55834;50.870;4.606;2023-03-21T14:01:29;100514.44;;;13.58;46.75
68822;BME280;55834;50.870;4.606;2023-03-21T14:04:33;100503.34;;;13.48;46.16
68822;BME280;55834;50.870;4.606;2023-03-21T14:07:05;100503.41;;;13.67;46.06
68822;BME280;55834;50.870;4.606;2023-03-21T14:09:36;100512.69;;;13.37;46.32
68822;BME280;55834;50.870;4.606;2023-03-21T14:12:26;100506.34;;;13.20;47.27
68822;BME280;55834;50.870;4.606;2023-03-21T14:15:02;100501.66;;;13.87;44.85
68822;BME280;55834;50.870;4.606;2023-03-21T14:17:30;100499.56;;;14.12;45.77
68822;BME280;55834;50.870;4.606;2023-03-21T14:20:14;100507.13;;;14.21;45.70
68822;BME280;55834;50.870;4.606;2023-03-21T14:22:46;100488.94;;;14.31;45.14
68822;BME280;55834;50.870;4.606;2023-03-21T14:25:13;100492.59;;;13.31;46.43
68822;BME280;55834;50.870;4.606;2023-03-21T14:27:42;100478.06;;;13.81;47.04
68822;BME280;55834;50.870;4.606;2023-03-21T14:30:20;100486.22;;;13.76;46.23
68822;BME280;55834;50.870;4.606;2023-03-21T14:32:47;100488.88;;;13.95;45.54
68822;BME280;55834;50.870;4.606;2023-03-21T14:35:12;100498.91;;;13.08;46.79